sensor_id;sensor_type;location;lat;lon;timestamp;P1;durP1;ratioP1;P2;durP2;ratioP2
17197;SDS011;8715;51.010;6.812;2023-06-26T00:03:28;914.83;;;850.08;;
17197;SDS011;8715;51.010;6.812;2023-06-26T00:07:05;916.28;;;851.35;;
17197;SDS011;8715;51.010;6.812;2023-06-26T00:10:44;921.03;;;855.95;;
17197;SDS011;8715;51.010;6.812;2023-06-26T00:14:22;919.78;;;854.85;;
17197;SDS011;8715;51.010;6.812;2023-06-26T00:18:00;913.42;;;848.83;;
17197;SDS011;8715;51.010;6.812;2023-06-26T00:21:39;914.30;;;850.28;;
17197;SDS011;8715;51.010;6.812;2023-06-26T00:25:17;915.88;;;851.60;;
17197;SDS011;8715;51.010;6.812;2023-06-26T00:28:54;910.80;;;846.70;;
17197;SDS011;8715;51.010;6.812;2023-06-26T00:32:32;912.00;;;848.42;;
17197;SDS011;8715;51.010;6.812;2023-06-26T00:36:11;913.38;;;849.85;;
17197;SDS011;8715;51.010;6.812;2023-06-26T00:39:49;909.00;;;845.38;;
17197;SDS011;8715;51.010;6.812;2023-06-26T00:43:27;908.67;;;845.38;;
17197;SDS011;8715;51.010;6.812;2023-06-26T00:47:05;911.42;;;848.10;;
17197;SDS011;8715;51.010;6.812;2023-06-26T00:50:43;910.17;;;846.97;;
17197;SDS011;8715;51.010;6.812;2023-06-26T00:54:22;907.13;;;844.35;;
17197;SDS011;8715;51.010;6.812;2023-06-26T00:58:00;912.58;;;849.55;;
17197;SDS011;8715;51.010;6.812;2023-06-26T01:01:38;908.92;;;846.03;;
17197;SDS011;8715;51.010;6.812;2023-06-26T01:05:17;905.20;;;842.80;;
17197;SDS011;8715;51.010;6.812;2023-06-26T01:08:57;904.80;;;842.35;;
17197;SDS011;8715;51.010;6.812;2023-06-26T01:12:34;903.78;;;841.58;;
17197;SDS011;8715;51.010;6.812;2023-06-26T01:16:14;906.17;;;843.75;;
17197;SDS011;8715;51.010;6.812;2023-06-26T01:19:55;902.50;;;840.47;;
17197;SDS011;8715;51.010;6.812;2023-06-26T01:23:35;903.28;;;841.17;;
17197;SDS011;8715;51.010;6.812;2023-06-26T01:27:18;905.85;;;843.55;;
17197;SDS011;8715;51.010;6.812;2023-06-26T01:30:57;903.47;;;841.47;;
17197;SDS011;8715;51.010;6.812;2023-06-26T01:34:35;907.17;;;845.03;;
17197;SDS011;8715;51.010;6.812;2023-06-26T01:38:14;904.33;;;842.22;;
17197;SDS011;8715;51.010;6.812;2023-06-26T01:41:53;900.50;;;838.75;;
17197;SDS011;8715;51.010;6.812;2023-06-26T01:45:32;902.83;;;841.08;;
17197;SDS011;8715;51.010;6.812;2023-06-26T01:49:12;903.65;;;842.13;;
17197;SDS011;8715;51.010;6.812;2023-06-26T01:52:57;902.75;;;841.05;;
17197;SDS011;8715;51.010;6.812;2023-06-26T01:56:37;898.72;;;837.42;;
17197;SDS011;8715;51.010;6.812;2023-06-26T02:00:18;897.80;;;836.67;;
17197;SDS011;8715;51.010;6.812;2023-06-26T02:03:57;904.42;;;842.80;;
17197;SDS011;8715;51.010;6.812;2023-06-26T02:07:35;900.22;;;838.90;;
17197;SDS011;8715;51.010;6.812;2023-06-26T02:11:12;899.17;;;838.03;;
17197;SDS011;8715;51.010;6.812;2023-06-26T02:14:50;901.05;;;839.58;;
17197;SDS011;8715;51.010;6.812;2023-06-26T02:18:30;897.40;;;836.25;;
17197;SDS011;8715;51.010;6.812;2023-06-26T02:22:08;901.28;;;840.10;;
17197;SDS011;8715;51.010;6.812;2023-06-26T02:25:46;901.58;;;840.15;;
17197;SDS011;8715;51.010;6.812;2023-06-26T02:29:24;900.17;;;839.08;;
17197;SDS011;8715;51.010;6.812;2023-06-26T02:33:03;897.63;;;836.47;;
17197;SDS011;8715;51.010;6.812;2023-06-26T02:36:41;901.03;;;840.17;;
17197;SDS011;8715;51.010;6.812;2023-06-26T02:40:19;899.13;;;838.33;;
17197;SDS011;8715;51.010;6.812;2023-06-26T02:43:57;901.10;;;840.22;;
17197;SDS011;8715;51.010;6.812;2023-06-26T02:47:35;900.78;;;839.85;;
17197;SDS011;8715;51.010;6.812;2023-06-26T02:51:14;897.97;;;837.45;;
17197;SDS011;8715;51.010;6.812;2023-06-26T02:54:52;902.70;;;841.65;;
17197;SDS011;8715;51.010;6.812;2023-06-26T02:58:31;898.53;;;837.97;;
17197;SDS011;8715;51.010;6.812;2023-06-26T03:02:09;897.33;;;836.88;;
17197;SDS011;8715;51.010;6.812;2023-06-26T03:05:49;902.60;;;841.95;;
17197;SDS011;8715;51.010;6.812;2023-06-26T03:09:26;894.42;;;834.22;;
17197;SDS011;8715;51.010;6.812;2023-06-26T03:13:04;896.28;;;835.90;;
17197;SDS011;8715;51.010;6.812;2023-06-26T03:16:42;899.75;;;839.22;;
17197;SDS011;8715;51.010;6.812;2023-06-26T03:20:20;899.05;;;838.78;;
17197;SDS011;8715;51.010;6.812;2023-06-26T03:23:59;897.83;;;837.15;;
17197;SDS011;8715;51.010;6.812;2023-06-26T03:27:37;900.00;;;838.90;;
17197;SDS011;8715;51.010;6.812;2023-06-26T03:31:16;905.45;;;844.05;;
17197;SDS011;8715;51.010;6.812;2023-06-26T03:34:53;906.92;;;845.60;;
17197;SDS011;8715;51.010;6.812;2023-06-26T03:38:33;899.00;;;837.47;;
17197;SDS011;8715;51.010;6.812;2023-06-26T03:42:10;909.13;;;846.90;;
17197;SDS011;8715;51.010;6.812;2023-06-26T03:45:48;905.92;;;843.50;;
17197;SDS011;8715;51.010;6.812;2023-06-26T03:49:26;907.13;;;844.40;;
17197;SDS011;8715;51.010;6.812;2023-06-26T03:53:04;905.83;;;842.65;;
17197;SDS011;8715;51.010;6.812;2023-06-26T03:56:43;913.33;;;849.55;;
17197;SDS011;8715;51.010;6.812;2023-06-26T04:00:21;916.03;;;851.30;;
17197;SDS011;8715;51.010;6.812;2023-06-26T04:03:59;920.40;;;854.92;;
17197;SDS011;8715;51.010;6.812;2023-06-26T04:07:37;920.47;;;854.28;;
17197;SDS011;8715;51.010;6.812;2023-06-26T04:11:17;923.30;;;856.60;;
17197;SDS011;8715;51.010;6.812;2023-06-26T04:14:54;919.75;;;853.35;;
17197;SDS011;8715;51.010;6.812;2023-06-26T04:18:32;919.10;;;852.58;;
17197;SDS011;8715;51.010;6.812;2023-06-26T04:22:10;925.35;;;858.42;;
17197;SDS011;8715;51.010;6.812;2023-06-26T04:25:48;926.63;;;859.30;;
17197;SDS011;8715;51.010;6.812;2023-06-26T04:29:29;922.67;;;855.47;;
17197;SDS011;8715;51.010;6.812;2023-06-26T04:33:07;916.97;;;851.10;;
17197;SDS011;8715;51.010;6.812;2023-06-26T04:36:45;924.45;;;857.75;;
17197;SDS011;8715;51.010;6.812;2023-06-26T04:40:22;920.08;;;853.30;;
17197;SDS011;8715;51.010;6.812;2023-06-26T04:44:01;921.30;;;854.20;;
17197;SDS011;8715;51.010;6.812;2023-06-26T04:47:39;920.55;;;854.25;;
17197;SDS011;8715;51.010;6.812;2023-06-26T04:51:17;915.03;;;849.08;;
17197;SDS011;8715;51.010;6.812;2023-06-26T04:54:57;916.33;;;850.13;;
17197;SDS011;8715;51.010;6.812;2023-06-26T04:58:34;920.60;;;854.42;;
17197;SDS011;8715;51.010;6.812;2023-06-26T05:02:14;917.53;;;851.47;;
17197;SDS011;8715;51.010;6.812;2023-06-26T05:05:51;922.67;;;856.08;;
17197;SDS011;8715;51.010;6.812;2023-06-26T05:09:29;918.53;;;852.42;;
17197;SDS011;8715;51.010;6.812;2023-06-26T05:13:07;918.10;;;852.28;;
17197;SDS011;8715;51.010;6.812;2023-06-26T05:16:46;917.75;;;852.13;;
17197;SDS011;8715;51.010;6.812;2023-06-26T05:20:24;913.22;;;848.38;;
17197;SDS011;8715;51.010;6.812;2023-06-26T05:24:01;912.28;;;847.45;;
17197;SDS011;8715;51.010;6.812;2023-06-26T05:27:42;914.03;;;849.10;;
17197;SDS011;8715;51.010;6.812;2023-06-26T05:31:20;913.63;;;848.50;;
17197;SDS011;8715;51.010;6.812;2023-06-26T05:35:02;917.05;;;851.55;;
17197;SDS011;8715;51.010;6.812;2023-06-26T05:38:40;919.92;;;854.22;;
17197;SDS011;8715;51.010;6.812;2023-06-26T05:42:18;915.38;;;849.85;;
17197;SDS011;8715;51.010;6.812;2023-06-26T05:45:56;913.85;;;848.70;;
17197;SDS011;8715;51.010;6.812;2023-06-26T05:49:35;917.55;;;852.10;;
17197;SDS011;8715;51.010;6.812;2023-06-26T05:53:13;913.15;;;848.13;;
17197;SDS011;8715;51.010;6.812;2023-06-26T05:56:51;916.80;;;851.40;;
17197;SDS011;8715;51.010;6.812;2023-06-26T06:00:31;918.75;;;852.58;;
17197;SDS011;8715;51.010;6.812;2023-06-26T06:04:09;917.53;;;851.08;;
17197;SDS011;8715;51.010;6.812;2023-06-26T06:07:49;916.47;;;850.17;;
17197;SDS011;8715;51.010;6.812;2023-06-26T06:11:26;917.53;;;851.72;;
17197;SDS011;8715;51.010;6.812;2023-06-26T06:15:04;922.45;;;855.60;;
17197;SDS011;8715;51.010;6.812;2023-06-26T06:18:42;927.08;;;859.25;;
17197;SDS011;8715;51.010;6.812;2023-06-26T06:22:21;916.67;;;850.17;;
17197;SDS011;8715;51.010;6.812;2023-06-26T06:25:59;921.38;;;855.25;;
17197;SDS011;8715;51.010;6.812;2023-06-26T06:29:37;913.72;;;848.58;;
17197;SDS011;8715;51.010;6.812;2023-06-26T06:33:15;911.05;;;846.53;;
17197;SDS011;8715;51.010;6.812;2023-06-26T06:36:53;910.75;;;846.72;;
17197;SDS011;8715;51.010;6.812;2023-06-26T06:40:32;901.95;;;839.05;;
17197;SDS011;8715;51.010;6.812;2023-06-26T06:44:10;903.28;;;840.97;;
17197;SDS011;8715;51.010;6.812;2023-06-26T06:47:48;906.55;;;844.35;;
17197;SDS011;8715;51.010;6.812;2023-06-26T06:51:26;910.38;;;847.33;;
17197;SDS011;8715;51.010;6.812;2023-06-26T06:55:06;911.30;;;847.67;;
17197;SDS011;8715;51.010;6.812;2023-06-26T06:58:44;914.05;;;849.83;;
17197;SDS011;8715;51.010;6.812;2023-06-26T07:02:22;918.55;;;853.03;;
17197;SDS011;8715;51.010;6.812;2023-06-26T07:06:00;919.38;;;853.97;;
17197;SDS011;8715;51.010;6.812;2023-06-26T07:09:38;918.35;;;852.80;;
17197;SDS011;8715;51.010;6.812;2023-06-26T07:13:17;913.70;;;848.33;;
17197;SDS011;8715;51.010;6.812;2023-06-26T07:16:55;912.60;;;847.88;;
17197;SDS011;8715;51.010;6.812;2023-06-26T07:20:33;912.33;;;847.97;;
17197;SDS011;8715;51.010;6.812;2023-06-26T07:24:11;908.67;;;844.80;;
17197;SDS011;8715;51.010;6.812;2023-06-26T07:27:54;904.58;;;841.13;;
17197;SDS011;8715;51.010;6.812;2023-06-26T07:31:32;906.25;;;842.92;;
17197;SDS011;8715;51.010;6.812;2023-06-26T07:35:10;910.53;;;846.50;;
17197;SDS011;8715;51.010;6.812;2023-06-26T07:38:48;913.95;;;849.35;;
17197;SDS011;8715;51.010;6.812;2023-06-26T07:42:26;915.75;;;850.40;;
17197;SDS011;8715;51.010;6.812;2023-06-26T07:46:06;918.35;;;852.05;;
17197;SDS011;8715;51.010;6.812;2023-06-26T07:49:44;917.88;;;851.35;;
17197;SDS011;8715;51.010;6.812;2023-06-26T07:53:22;920.45;;;853.85;;
17197;SDS011;8715;51.010;6.812;2023-06-26T07:57:01;923.13;;;856.22;;
17197;SDS011;8715;51.010;6.812;2023-06-26T08:00:40;921.00;;;854.08;;
17197;SDS011;8715;51.010;6.812;2023-06-26T08:04:18;920.20;;;852.90;;
17197;SDS011;8715;51.010;6.812;2023-06-26T08:07:56;920.75;;;854.00;;
17197;SDS011;8715;51.010;6.812;2023-06-26T08:11:34;919.47;;;852.72;;
17197;SDS011;8715;51.010;6.812;2023-06-26T08:15:12;921.20;;;854.90;;
17197;SDS011;8715;51.010;6.812;2023-06-26T08:18:51;924.97;;;858.08;;
17197;SDS011;8715;51.010;6.812;2023-06-26T08:22:29;922.50;;;855.28;;
17197;SDS011;8715;51.010;6.812;2023-06-26T08:26:08;923.97;;;856.45;;
17197;SDS011;8715;51.010;6.812;2023-06-26T08:29:47;923.30;;;855.38;;
17197;SDS011;8715;51.010;6.812;2023-06-26T08:33:26;921.88;;;854.58;;
17197;SDS011;8715;51.010;6.812;2023-06-26T08:37:04;923.58;;;856.17;;
17197;SDS011;8715;51.010;6.812;2023-06-26T08:40:41;921.85;;;854.65;;
17197;SDS011;8715;51.010;6.812;2023-06-26T08:44:19;925.80;;;858.08;;
17197;SDS011;8715;51.010;6.812;2023-06-26T08:47:58;920.65;;;853.72;;
17197;SDS011;8715;51.010;6.812;2023-06-26T08:51:39;922.97;;;856.13;;
17197;SDS011;8715;51.010;6.812;2023-06-26T08:55:21;917.88;;;851.35;;
17197;SDS011;8715;51.010;6.812;2023-06-26T08:59:02;915.83;;;849.67;;
17197;SDS011;8715;51.010;6.812;2023-06-26T09:02:40;917.65;;;851.67;;
17197;SDS011;8715;51.010;6.812;2023-06-26T09:06:19;912.53;;;847.00;;
17197;SDS011;8715;51.010;6.812;2023-06-26T09:09:57;922.13;;;855.75;;
17197;SDS011;8715;51.010;6.812;2023-06-26T09:13:36;918.58;;;852.63;;
17197;SDS011;8715;51.010;6.812;2023-06-26T09:17:14;919.72;;;853.65;;
17197;SDS011;8715;51.010;6.812;2023-06-26T09:20:52;915.97;;;850.53;;
17197;SDS011;8715;51.010;6.812;2023-06-26T09:24:33;913.38;;;848.88;;
17197;SDS011;8715;51.010;6.812;2023-06-26T09:28:11;906.72;;;842.60;;
17197;SDS011;8715;51.010;6.812;2023-06-26T09:31:51;917.85;;;852.38;;
17197;SDS011;8715;51.010;6.812;2023-06-26T09:35:28;909.40;;;844.60;;
17197;SDS011;8715;51.010;6.812;2023-06-26T09:39:08;917.67;;;852.08;;
17197;SDS011;8715;51.010;6.812;2023-06-26T09:42:46;919.92;;;853.90;;
17197;SDS011;8715;51.010;6.812;2023-06-26T09:46:30;920.05;;;853.35;;
17197;SDS011;8715;51.010;6.812;2023-06-26T09:50:13;923.83;;;856.35;;
17197;SDS011;8715;51.010;6.812;2023-06-26T09:53:58;920.72;;;853.50;;
17197;SDS011;8715;51.010;6.812;2023-06-26T09:57:38;922.80;;;855.88;;
17197;SDS011;8715;51.010;6.812;2023-06-26T10:01:16;919.05;;;852.38;;
17197;SDS011;8715;51.010;6.812;2023-06-26T10:04:55;916.22;;;849.60;;
17197;SDS011;8715;51.010;6.812;2023-06-26T10:08:32;920.08;;;853.05;;
17197;SDS011;8715;51.010;6.812;2023-06-26T10:12:14;922.72;;;856.33;;
17197;SDS011;8715;51.010;6.812;2023-06-26T10:15:57;919.42;;;853.15;;
17197;SDS011;8715;51.010;6.812;2023-06-26T10:19:37;916.47;;;850.65;;
17197;SDS011;8715;51.010;6.812;2023-06-26T10:23:15;920.92;;;854.60;;
17197;SDS011;8715;51.010;6.812;2023-06-26T10:26:58;922.50;;;855.45;;
17197;SDS011;8715;51.010;6.812;2023-06-26T10:30:39;918.85;;;852.03;;
17197;SDS011;8715;51.010;6.812;2023-06-26T10:34:17;923.72;;;856.28;;
17197;SDS011;8715;51.010;6.812;2023-06-26T10:38:00;922.47;;;854.88;;
17197;SDS011;8715;51.010;6.812;2023-06-26T10:41:40;926.42;;;858.42;;
17197;SDS011;8715;51.010;6.812;2023-06-26T10:45:20;924.40;;;856.45;;
17197;SDS011;8715;51.010;6.812;2023-06-26T10:49:00;927.28;;;858.90;;
17197;SDS011;8715;51.010;6.812;2023-06-26T10:52:37;921.72;;;854.08;;
17197;SDS011;8715;51.010;6.812;2023-06-26T10:56:18;927.05;;;858.95;;
17197;SDS011;8715;51.010;6.812;2023-06-26T11:04:06;926.60;;;858.22;;
17197;SDS011;8715;51.010;6.812;2023-06-26T11:11:54;930.85;;;861.40;;
17197;SDS011;8715;51.010;6.812;2023-06-26T11:15:32;928.83;;;859.80;;
17197;SDS011;8715;51.010;6.812;2023-06-26T11:19:12;930.05;;;861.13;;
17197;SDS011;8715;51.010;6.812;2023-06-26T11:22:52;927.10;;;858.22;;
17197;SDS011;8715;51.010;6.812;2023-06-26T11:26:34;930.83;;;862.08;;
17197;SDS011;8715;51.010;6.812;2023-06-26T11:30:22;929.35;;;860.80;;
17197;SDS011;8715;51.010;6.812;2023-06-26T11:34:12;925.45;;;857.33;;
17197;SDS011;8715;51.010;6.812;2023-06-26T11:37:50;923.22;;;855.13;;
17197;SDS011;8715;51.010;6.812;2023-06-26T11:41:38;927.30;;;858.58;;
17197;SDS011;8715;51.010;6.812;2023-06-26T11:45:16;926.33;;;857.63;;
17197;SDS011;8715;51.010;6.812;2023-06-26T11:48:54;926.58;;;857.92;;
17197;SDS011;8715;51.010;6.812;2023-06-26T11:52:34;926.22;;;857.88;;
17197;SDS011;8715;51.010;6.812;2023-06-26T11:56:12;927.03;;;858.70;;
17197;SDS011;8715;51.010;6.812;2023-06-26T11:59:50;924.85;;;856.97;;
17197;SDS011;8715;51.010;6.812;2023-06-26T12:03:28;926.20;;;858.03;;
17197;SDS011;8715;51.010;6.812;2023-06-26T12:07:08;925.38;;;857.20;;
17197;SDS011;8715;51.010;6.812;2023-06-26T12:10:47;928.72;;;860.05;;
17197;SDS011;8715;51.010;6.812;2023-06-26T12:14:25;928.63;;;859.65;;
17197;SDS011;8715;51.010;6.812;2023-06-26T12:18:07;928.15;;;859.25;;
17197;SDS011;8715;51.010;6.812;2023-06-26T12:21:48;928.63;;;859.70;;
17197;SDS011;8715;51.010;6.812;2023-06-26T12:25:28;927.78;;;858.85;;
17197;SDS011;8715;51.010;6.812;2023-06-26T12:29:07;922.90;;;854.85;;
17197;SDS011;8715;51.010;6.812;2023-06-26T12:32:45;918.60;;;851.05;;
17197;SDS011;8715;51.010;6.812;2023-06-26T12:36:23;922.40;;;854.97;;
17197;SDS011;8715;51.010;6.812;2023-06-26T12:40:02;928.83;;;860.58;;
17197;SDS011;8715;51.010;6.812;2023-06-26T12:43:41;922.30;;;854.70;;
17197;SDS011;8715;51.010;6.812;2023-06-26T12:47:23;927.97;;;859.63;;
17197;SDS011;8715;51.010;6.812;2023-06-26T12:51:07;921.47;;;854.67;;
17197;SDS011;8715;51.010;6.812;2023-06-26T12:54:45;918.08;;;851.33;;
17197;SDS011;8715;51.010;6.812;2023-06-26T12:58:25;919.35;;;853.10;;
17197;SDS011;8715;51.010;6.812;2023-06-26T13:02:03;921.15;;;854.05;;
17197;SDS011;8715;51.010;6.812;2023-06-26T13:05:42;922.13;;;855.20;;
17197;SDS011;8715;51.010;6.812;2023-06-26T13:09:20;925.92;;;858.25;;
17197;SDS011;8715;51.010;6.812;2023-06-26T13:12:59;921.28;;;853.85;;
17197;SDS011;8715;51.010;6.812;2023-06-26T13:16:37;924.08;;;856.83;;
17197;SDS011;8715;51.010;6.812;2023-06-26T13:20:16;919.10;;;851.60;;
17197;SDS011;8715;51.010;6.812;2023-06-26T13:23:53;921.00;;;853.85;;
17197;SDS011;8715;51.010;6.812;2023-06-26T13:27:31;917.22;;;850.88;;
17197;SDS011;8715;51.010;6.812;2023-06-26T13:31:11;920.75;;;854.13;;
17197;SDS011;8715;51.010;6.812;2023-06-26T13:34:49;920.13;;;853.58;;
17197;SDS011;8715;51.010;6.812;2023-06-26T13:38:27;917.83;;;850.88;;
17197;SDS011;8715;51.010;6.812;2023-06-26T13:42:05;922.85;;;855.95;;
17197;SDS011;8715;51.010;6.812;2023-06-26T13:45:44;919.20;;;852.50;;
17197;SDS011;8715;51.010;6.812;2023-06-26T13:49:22;919.20;;;852.38;;
17197;SDS011;8715;51.010;6.812;2023-06-26T13:53:00;917.53;;;850.92;;
17197;SDS011;8715;51.010;6.812;2023-06-26T13:56:38;919.30;;;852.70;;
17197;SDS011;8715;51.010;6.812;2023-06-26T14:00:17;915.97;;;849.92;;
17197;SDS011;8715;51.010;6.812;2023-06-26T14:03:57;915.55;;;849.75;;
17197;SDS011;8715;51.010;6.812;2023-06-26T14:07:35;915.80;;;849.78;;
17197;SDS011;8715;51.010;6.812;2023-06-26T14:11:13;917.38;;;851.58;;
17197;SDS011;8715;51.010;6.812;2023-06-26T14:14:51;914.40;;;848.72;;
17197;SDS011;8715;51.010;6.812;2023-06-26T14:18:31;923.75;;;856.42;;
17197;SDS011;8715;51.010;6.812;2023-06-26T14:22:09;919.08;;;852.17;;
17197;SDS011;8715;51.010;6.812;2023-06-26T14:25:47;920.47;;;853.50;;
17197;SDS011;8715;51.010;6.812;2023-06-26T14:29:25;926.55;;;859.42;;
17197;SDS011;8715;51.010;6.812;2023-06-26T14:33:03;917.65;;;851.17;;
17197;SDS011;8715;51.010;6.812;2023-06-26T14:36:43;918.88;;;852.55;;
17197;SDS011;8715;51.010;6.812;2023-06-26T14:40:23;914.15;;;847.90;;
17197;SDS011;8715;51.010;6.812;2023-06-26T14:44:00;921.03;;;854.75;;
17197;SDS011;8715;51.010;6.812;2023-06-26T14:47:38;919.47;;;852.92;;
17197;SDS011;8715;51.010;6.812;2023-06-26T14:51:17;925.17;;;857.67;;
17197;SDS011;8715;51.010;6.812;2023-06-26T14:54:55;921.13;;;853.88;;
17197;SDS011;8715;51.010;6.812;2023-06-26T14:58:33;922.10;;;854.75;;
17197;SDS011;8715;51.010;6.812;2023-06-26T15:02:10;924.03;;;856.65;;
17197;SDS011;8715;51.010;6.812;2023-06-26T15:05:48;924.03;;;857.00;;
17197;SDS011;8715;51.010;6.812;2023-06-26T15:09:28;918.78;;;851.83;;
17197;SDS011;8715;51.010;6.812;2023-06-26T15:13:06;922.88;;;856.15;;
17197;SDS011;8715;51.010;6.812;2023-06-26T15:16:44;918.88;;;852.35;;
17197;SDS011;8715;51.010;6.812;2023-06-26T15:20:21;920.35;;;854.10;;
17197;SDS011;8715;51.010;6.812;2023-06-26T15:24:01;920.35;;;853.70;;
17197;SDS011;8715;51.010;6.812;2023-06-26T15:27:38;921.38;;;855.13;;
17197;SDS011;8715;51.010;6.812;2023-06-26T15:31:16;917.90;;;852.13;;
17197;SDS011;8715;51.010;6.812;2023-06-26T15:34:54;914.58;;;849.08;;
17197;SDS011;8715;51.010;6.812;2023-06-26T15:38:32;918.70;;;853.47;;
17197;SDS011;8715;51.010;6.812;2023-06-26T15:42:11;920.45;;;854.58;;
17197;SDS011;8715;51.010;6.812;2023-06-26T15:45:49;918.33;;;852.78;;
17197;SDS011;8715;51.010;6.812;2023-06-26T15:49:27;912.90;;;848.38;;
17197;SDS011;8715;51.010;6.812;2023-06-26T15:53:05;916.08;;;849.92;;
17197;SDS011;8715;51.010;6.812;2023-06-26T15:56:44;917.63;;;851.58;;
17197;SDS011;8715;51.010;6.812;2023-06-26T16:00:22;917.28;;;851.35;;
17197;SDS011;8715;51.010;6.812;2023-06-26T16:04:00;917.47;;;851.63;;
17197;SDS011;8715;51.010;6.812;2023-06-26T16:07:38;918.15;;;852.30;;
17197;SDS011;8715;51.010;6.812;2023-06-26T16:11:16;920.38;;;854.20;;
17197;SDS011;8715;51.010;6.812;2023-06-26T16:14:55;923.40;;;856.75;;
17197;SDS011;8715;51.010;6.812;2023-06-26T16:18:32;917.58;;;851.35;;
17197;SDS011;8715;51.010;6.812;2023-06-26T16:22:10;923.08;;;856.58;;
17197;SDS011;8715;51.010;6.812;2023-06-26T16:25:48;916.15;;;850.17;;
17197;SDS011;8715;51.010;6.812;2023-06-26T16:29:27;917.55;;;851.60;;
17197;SDS011;8715;51.010;6.812;2023-06-26T16:33:05;916.08;;;850.15;;
17197;SDS011;8715;51.010;6.812;2023-06-26T16:36:44;914.17;;;848.60;;
17197;SDS011;8715;51.010;6.812;2023-06-26T16:40:22;920.25;;;854.50;;
17197;SDS011;8715;51.010;6.812;2023-06-26T16:44:00;917.88;;;852.03;;
17197;SDS011;8715;51.010;6.812;2023-06-26T16:47:39;916.95;;;851.30;;
17197;SDS011;8715;51.010;6.812;2023-06-26T16:51:16;914.35;;;849.22;;
17197;SDS011;8715;51.010;6.812;2023-06-26T16:54:54;910.13;;;845.55;;
17197;SDS011;8715;51.010;6.812;2023-06-26T16:58:32;909.92;;;845.78;;
17197;SDS011;8715;51.010;6.812;2023-06-26T17:02:11;911.83;;;847.35;;
17197;SDS011;8715;51.010;6.812;2023-06-26T17:05:49;908.53;;;844.58;;
17197;SDS011;8715;51.010;6.812;2023-06-26T17:09:27;911.30;;;847.28;;
17197;SDS011;8715;51.010;6.812;2023-06-26T17:13:05;913.03;;;849.10;;
17197;SDS011;8715;51.010;6.812;2023-06-26T17:16:43;906.03;;;842.45;;
17197;SDS011;8715;51.010;6.812;2023-06-26T17:20:22;908.28;;;845.00;;
17197;SDS011;8715;51.010;6.812;2023-06-26T17:24:00;905.72;;;842.60;;
17197;SDS011;8715;51.010;6.812;2023-06-26T17:27:42;905.72;;;842.85;;
17197;SDS011;8715;51.010;6.812;2023-06-26T17:31:20;909.97;;;846.47;;
17197;SDS011;8715;51.010;6.812;2023-06-26T17:34:59;908.50;;;845.38;;
17197;SDS011;8715;51.010;6.812;2023-06-26T17:38:37;905.10;;;842.28;;
17197;SDS011;8715;51.010;6.812;2023-06-26T17:42:15;904.10;;;841.50;;
17197;SDS011;8715;51.010;6.812;2023-06-26T17:45:53;906.75;;;844.00;;
17197;SDS011;8715;51.010;6.812;2023-06-26T17:49:30;905.70;;;843.45;;
17197;SDS011;8715;51.010;6.812;2023-06-26T17:53:10;904.47;;;842.13;;
17197;SDS011;8715;51.010;6.812;2023-06-26T17:56:47;902.33;;;840.30;;
17197;SDS011;8715;51.010;6.812;2023-06-26T18:00:25;904.92;;;842.42;;
17197;SDS011;8715;51.010;6.812;2023-06-26T18:04:03;903.58;;;841.38;;
17197;SDS011;8715;51.010;6.812;2023-06-26T18:07:43;903.10;;;840.90;;
17197;SDS011;8715;51.010;6.812;2023-06-26T18:11:21;908.08;;;845.22;;
17197;SDS011;8715;51.010;6.812;2023-06-26T18:14:59;903.30;;;840.85;;
17197;SDS011;8715;51.010;6.812;2023-06-26T18:18:37;907.45;;;844.55;;
17197;SDS011;8715;51.010;6.812;2023-06-26T18:22:15;905.92;;;843.42;;
17197;SDS011;8715;51.010;6.812;2023-06-26T18:25:54;901.22;;;839.25;;
17197;SDS011;8715;51.010;6.812;2023-06-26T18:29:32;902.80;;;840.80;;
17197;SDS011;8715;51.010;6.812;2023-06-26T18:33:10;900.97;;;839.30;;
17197;SDS011;8715;51.010;6.812;2023-06-26T18:36:48;900.92;;;838.97;;
17197;SDS011;8715;51.010;6.812;2023-06-26T18:40:28;904.28;;;841.75;;
17197;SDS011;8715;51.010;6.812;2023-06-26T18:44:05;908.85;;;845.53;;
17197;SDS011;8715;51.010;6.812;2023-06-26T18:47:43;909.35;;;846.28;;
17197;SDS011;8715;51.010;6.812;2023-06-26T18:51:21;902.60;;;839.70;;
17197;SDS011;8715;51.010;6.812;2023-06-26T18:54:59;904.70;;;841.97;;
17197;SDS011;8715;51.010;6.812;2023-06-26T18:58:38;908.67;;;845.50;;
17197;SDS011;8715;51.010;6.812;2023-06-26T19:02:16;900.25;;;838.05;;
17197;SDS011;8715;51.010;6.812;2023-06-26T19:05:54;902.67;;;840.13;;
17197;SDS011;8715;51.010;6.812;2023-06-26T19:09:32;905.53;;;843.17;;
17197;SDS011;8715;51.010;6.812;2023-06-26T19:13:11;909.33;;;846.60;;
17197;SDS011;8715;51.010;6.812;2023-06-26T19:16:48;901.55;;;839.42;;
17197;SDS011;8715;51.010;6.812;2023-06-26T19:20:26;905.67;;;843.55;;
17197;SDS011;8715;51.010;6.812;2023-06-26T19:24:04;898.92;;;837.53;;
17197;SDS011;8715;51.010;6.812;2023-06-26T19:27:42;903.10;;;841.38;;
17197;SDS011;8715;51.010;6.812;2023-06-26T19:31:22;900.50;;;839.10;;
17197;SDS011;8715;51.010;6.812;2023-06-26T19:35:00;902.63;;;841.03;;
17197;SDS011;8715;51.010;6.812;2023-06-26T19:38:38;896.78;;;835.83;;
17197;SDS011;8715;51.010;6.812;2023-06-26T19:42:16;901.60;;;840.60;;
17197;SDS011;8715;51.010;6.812;2023-06-26T19:45:56;902.70;;;841.30;;
17197;SDS011;8715;51.010;6.812;2023-06-26T19:49:34;889.75;;;830.42;;
17197;SDS011;8715;51.010;6.812;2023-06-26T19:53:11;890.78;;;831.47;;
17197;SDS011;8715;51.010;6.812;2023-06-26T19:56:49;892.80;;;833.38;;
17197;SDS011;8715;51.010;6.812;2023-06-26T20:00:27;897.17;;;837.83;;
17197;SDS011;8715;51.010;6.812;2023-06-26T20:04:08;896.40;;;837.35;;
17197;SDS011;8715;51.010;6.812;2023-06-26T20:07:46;889.33;;;830.65;;
17197;SDS011;8715;51.010;6.812;2023-06-26T20:11:24;888.55;;;830.28;;
17197;SDS011;8715;51.010;6.812;2023-06-26T20:15:03;896.35;;;837.35;;
17197;SDS011;8715;51.010;6.812;2023-06-26T20:18:42;888.35;;;830.25;;
17197;SDS011;8715;51.010;6.812;2023-06-26T20:22:20;883.13;;;825.88;;
17197;SDS011;8715;51.010;6.812;2023-06-26T20:25:58;887.78;;;829.63;;
17197;SDS011;8715;51.010;6.812;2023-06-26T20:29:36;888.55;;;830.92;;
17197;SDS011;8715;51.010;6.812;2023-06-26T20:33:14;882.00;;;825.00;;
17197;SDS011;8715;51.010;6.812;2023-06-26T20:36:53;888.75;;;831.22;;
17197;SDS011;8715;51.010;6.812;2023-06-26T20:40:31;884.28;;;826.47;;
17197;SDS011;8715;51.010;6.812;2023-06-26T20:44:09;884.95;;;827.85;;
17197;SDS011;8715;51.010;6.812;2023-06-26T20:47:48;883.65;;;826.67;;
17197;SDS011;8715;51.010;6.812;2023-06-26T20:51:28;882.97;;;826.13;;
17197;SDS011;8715;51.010;6.812;2023-06-26T20:55:06;879.42;;;822.95;;
17197;SDS011;8715;51.010;6.812;2023-06-26T20:58:44;879.72;;;823.40;;
17197;SDS011;8715;51.010;6.812;2023-06-26T21:02:22;878.78;;;822.72;;
17197;SDS011;8715;51.010;6.812;2023-06-26T21:06:00;881.88;;;825.75;;
17197;SDS011;8715;51.010;6.812;2023-06-26T21:09:39;881.30;;;825.13;;